Tallinn, Estonia
Current Conditions -  °F | °C
As of 3:20 PM on Friday 19 Dec 2014 (Local Time) from EETN Reporting Station
Light Rain Light Rain  
Wind Chill: 34°   Ceiling: 700
Heat Index: 43°   Visibility: 4mi
Dew Point: 41°   Wind: 20mph
Humidity: 93%   Direction: 250°WSW
Pressure: 29.06"   Gusts: NA
Location:  59.44°N, 24.74°E
Report Text: EETN 191320Z 25017KT 6000 -RA BKN007 OVC012 06/05 Q0984 RERA R08/290195 NOSIG
Loading
Personal Weather Stations






























Interactive Weather Map New forecast layout! Learn more

10-Day Weather Forecast

Advertisements
Track Severe Weather on mobile